createdAt,value
2019-05-30T00:00:27.441Z,0
2019-05-30T00:00:59.965Z,0
2019-05-30T00:02:02.582Z,0
2019-05-30T00:03:02.414Z,0
2019-05-30T00:04:03.171Z,0
2019-05-30T00:05:02.656Z,0
2019-05-30T00:06:04.556Z,0
2019-05-30T00:07:04.631Z,0
2019-05-30T00:08:05.581Z,0
2019-05-30T00:09:06.023Z,0
2019-05-30T00:10:06.073Z,0
2019-05-30T00:11:05.866Z,0
2019-05-30T00:12:06.358Z,0
2019-05-30T00:13:08.395Z,0
2019-05-30T00:14:10.498Z,0
2019-05-30T00:15:11.786Z,0
2019-05-30T00:16:11.278Z,0
2019-05-30T00:17:11.288Z,0
2019-05-30T00:18:11.523Z,0
2019-05-30T00:19:11.791Z,0
2019-05-30T00:20:14.322Z,0
2019-05-30T00:21:13.551Z,0
2019-05-30T00:22:16.568Z,0
2019-05-30T00:23:14.796Z,0
2019-05-30T00:24:15.166Z,0
2019-05-30T00:25:15.529Z,0
2019-05-30T00:26:15.227Z,0
2019-05-30T00:27:15.191Z,0
2019-05-30T00:28:16.734Z,0
2019-05-30T00:29:17.582Z,0
2019-05-30T00:30:35.381Z,0
2019-05-30T00:31:17.559Z,0
2019-05-30T00:32:18.793Z,0
2019-05-30T00:33:19.353Z,0
2019-05-30T00:34:20.136Z,0
2019-05-30T00:35:19.662Z,0
2019-05-30T00:36:20.073Z,0
2019-05-30T00:37:21.797Z,0
2019-05-30T00:38:22.218Z,0
2019-05-30T00:39:22.416Z,0
2019-05-30T00:40:22.293Z,0
2019-05-30T00:41:23.010Z,0
2019-05-30T00:42:22.953Z,0
2019-05-30T00:43:23.393Z,0
2019-05-30T00:44:23.812Z,0
2019-05-30T00:45:36.453Z,0
2019-05-30T00:46:24.868Z,0
2019-05-30T00:47:25.277Z,0
2019-05-30T00:48:25.693Z,0
2019-05-30T00:49:26.657Z,0
2019-05-30T00:50:27.079Z,0
2019-05-30T00:51:27.755Z,0
2019-05-30T00:52:28.051Z,0
2019-05-30T00:53:29.035Z,0
2019-05-30T00:54:29.436Z,0
2019-05-30T00:55:29.863Z,0
2019-05-30T00:56:30.847Z,0
2019-05-30T00:57:31.830Z,0
2019-05-30T00:58:32.243Z,0
2019-05-30T00:59:32.638Z,0
2019-05-30T01:00:48.917Z,0
2019-05-30T01:01:33.911Z,0
2019-05-30T01:02:34.955Z,0
2019-05-30T01:03:35.071Z,0
2019-05-30T01:04:35.805Z,0
2019-05-30T01:05:38.207Z,0
2019-05-30T01:06:36.942Z,0
2019-05-30T01:07:37.074Z,0
2019-05-30T01:08:37.468Z,0
2019-05-30T01:09:38.156Z,0
2019-05-30T01:10:38.276Z,0
2019-05-30T01:11:38.738Z,0
2019-05-30T01:12:39.691Z,0
2019-05-30T01:13:39.809Z,0
2019-05-30T01:14:40.502Z,0
2019-05-30T01:15:41.178Z,0
2019-05-30T01:16:42.769Z,0
2019-05-30T01:17:41.979Z,0
2019-05-30T01:18:42.455Z,0
2019-05-30T01:19:42.571Z,0
2019-05-30T01:20:43.585Z,0
2019-05-30T01:21:43.992Z,0
2019-05-30T01:22:44.953Z,0
2019-05-30T01:23:45.340Z,0
2019-05-30T01:24:45.761Z,0
2019-05-30T01:25:46.468Z,0
2019-05-30T01:26:46.872Z,0
2019-05-30T01:27:47.285Z,0
2019-05-30T01:28:47.992Z,0
2019-05-30T01:29:49.031Z,0
2019-05-30T01:31:09.478Z,0
2019-05-30T01:31:49.545Z,0
2019-05-30T01:32:50.076Z,0
2019-05-30T01:33:50.490Z,0
2019-05-30T01:34:50.604Z,0
2019-05-30T01:35:51.000Z,0
2019-05-30T01:36:51.391Z,0
2019-05-30T01:37:51.801Z,0
2019-05-30T01:38:52.237Z,0
2019-05-30T01:39:52.353Z,0
2019-05-30T01:40:52.474Z,0
2019-05-30T01:41:52.886Z,0
2019-05-30T01:42:53.411Z,0
2019-05-30T01:43:53.807Z,0
2019-05-30T01:44:54.783Z,0
2019-05-30T01:45:55.246Z,0
2019-05-30T01:46:55.966Z,0
2019-05-30T01:47:58.165Z,0
2019-05-30T01:48:56.631Z,0
2019-05-30T01:49:58.203Z,0
2019-05-30T01:50:58.286Z,0
2019-05-30T01:52:00.317Z,0
2019-05-30T01:53:00.303Z,0
2019-05-30T01:54:00.541Z,0
2019-05-30T01:55:00.973Z,0
2019-05-30T01:56:06.787Z,0
2019-05-30T01:57:02.581Z,0
2019-05-30T01:58:05.030Z,0
2019-05-30T01:59:04.777Z,0
2019-05-30T02:00:07.647Z,0
2019-05-30T02:01:25.270Z,0
2019-05-30T02:02:07.200Z,0
2019-05-30T02:03:07.034Z,0
2019-05-30T02:04:07.286Z,0
2019-05-30T02:05:07.530Z,0
2019-05-30T02:06:07.285Z,0
2019-05-30T02:07:09.367Z,0
2019-05-30T02:08:09.870Z,0
2019-05-30T02:09:11.345Z,0
2019-05-30T02:10:10.536Z,0
2019-05-30T02:11:10.699Z,0
2019-05-30T02:12:12.791Z,0
2019-05-30T02:13:13.069Z,0
2019-05-30T02:14:15.523Z,0
2019-05-30T02:15:13.320Z,0
2019-05-30T02:16:15.234Z,0
2019-05-30T02:17:15.567Z,0
2019-05-30T02:18:15.555Z,0
2019-05-30T02:19:16.729Z,0
2019-05-30T02:20:16.457Z,0
2019-05-30T02:21:16.536Z,0
2019-05-30T02:22:18.865Z,0
2019-05-30T02:23:22.799Z,0
2019-05-30T02:24:18.606Z,0
2019-05-30T02:25:21.309Z,0
2019-05-30T02:26:21.837Z,0
2019-05-30T02:27:20.980Z,0
2019-05-30T02:28:21.402Z,0
2019-05-30T02:29:21.101Z,0
2019-05-30T02:30:26.595Z,0
2019-05-30T02:31:43.799Z,0
2019-05-30T02:32:23.206Z,0
2019-05-30T02:33:25.505Z,0
2019-05-30T02:34:26.171Z,0
2019-05-30T02:35:29.148Z,0
2019-05-30T02:36:28.702Z,0
2019-05-30T02:37:28.843Z,0
2019-05-30T02:38:28.114Z,0
2019-05-30T02:39:29.191Z,0
2019-05-30T02:40:31.548Z,0
2019-05-30T02:41:29.099Z,0
2019-05-30T02:42:29.377Z,0
2019-05-30T02:43:29.801Z,0
2019-05-30T02:44:30.214Z,0
2019-05-30T02:45:30.918Z,0
2019-05-30T02:46:31.389Z,0
2019-05-30T02:47:33.290Z,0
2019-05-30T02:48:33.327Z,0
2019-05-30T02:49:34.628Z,0
2019-05-30T02:50:34.356Z,0
2019-05-30T02:51:34.758Z,0
2019-05-30T02:52:35.191Z,0
2019-05-30T02:53:35.982Z,0
2019-05-30T02:54:36.691Z,0
2019-05-30T02:55:37.106Z,0
2019-05-30T02:56:37.225Z,0
2019-05-30T02:57:37.912Z,0
2019-05-30T02:58:38.952Z,0
2019-05-30T02:59:39.382Z,0
2019-05-30T03:00:40.092Z,0
2019-05-30T03:01:58.754Z,0
2019-05-30T03:02:41.277Z,0
2019-05-30T03:03:41.150Z,0
2019-05-30T03:04:42.136Z,0
2019-05-30T03:05:42.866Z,0
2019-05-30T03:06:43.865Z,0
2019-05-30T03:07:44.892Z,0
2019-05-30T03:08:45.322Z,0
2019-05-30T03:09:46.003Z,0
2019-05-30T03:10:46.835Z,0
2019-05-30T03:11:47.851Z,0
2019-05-30T03:12:48.553Z,0
2019-05-30T03:13:48.505Z,0
2019-05-30T03:14:48.654Z,0
2019-05-30T03:15:49.409Z,0
2019-05-30T03:16:50.435Z,0
2019-05-30T03:17:51.150Z,0
2019-05-30T03:18:51.855Z,0
2019-05-30T03:19:52.570Z,0
2019-05-30T03:20:53.575Z,0
2019-05-30T03:21:53.716Z,0
2019-05-30T03:22:54.714Z,0
2019-05-30T03:23:55.313Z,0
2019-05-30T03:24:56.304Z,0
2019-05-30T03:25:57.323Z,0
2019-05-30T03:26:58.014Z,0
2019-05-30T03:27:58.767Z,0
2019-05-30T03:29:05.510Z,0
2019-05-30T03:30:04.244Z,0
2019-05-30T03:31:04.267Z,0
2019-05-30T03:32:38.458Z,5.63
2019-05-30T03:33:53.383Z,5.63
2019-05-30T03:34:45.975Z,5.63
2019-05-30T03:35:58.586Z,5.63
2019-05-30T03:36:48.569Z,5.63
2019-05-30T03:37:49.277Z,5.63
2019-05-30T03:38:49.564Z,5.63
2019-05-30T03:39:49.362Z,5.63
2019-05-30T03:40:50.363Z,5.63
2019-05-30T03:41:51.069Z,5.63
2019-05-30T03:42:51.488Z,11.25
2019-05-30T03:43:52.487Z,11.25
2019-05-30T03:44:52.906Z,11.25
2019-05-30T03:45:53.930Z,11.25
2019-05-30T03:46:54.227Z,11.25
2019-05-30T03:47:54.651Z,11.25
2019-05-30T03:48:55.663Z,11.25
2019-05-30T03:49:56.739Z,11.25
2019-05-30T03:50:57.505Z,16.88
2019-05-30T03:51:58.507Z,16.88
2019-05-30T03:52:59.252Z,16.88
2019-05-30T03:54:00.831Z,16.88
2019-05-30T03:55:00.403Z,16.88
2019-05-30T03:56:01.144Z,16.88
2019-05-30T03:57:02.158Z,16.88
2019-05-30T03:58:02.869Z,22.5
2019-05-30T03:59:03.586Z,22.5
2019-05-30T04:00:05.829Z,28.13
2019-05-30T04:01:08.006Z,28.13
2019-05-30T04:02:06.375Z,28.13
2019-05-30T04:03:20.594Z,22.5
2019-05-30T04:04:08.577Z,22.5
2019-05-30T04:05:09.066Z,22.5
2019-05-30T04:06:10.044Z,22.5
2019-05-30T04:07:09.090Z,22.5
2019-05-30T04:08:09.887Z,28.13
2019-05-30T04:09:09.753Z,28.13
2019-05-30T04:10:11.348Z,28.13
2019-05-30T04:11:11.891Z,28.13
2019-05-30T04:12:14.795Z,28.13
2019-05-30T04:13:14.478Z,28.13
2019-05-30T04:14:15.643Z,28.13
2019-05-30T04:15:17.105Z,28.13
2019-05-30T04:16:15.593Z,28.13
2019-05-30T04:17:15.768Z,28.13
2019-05-30T04:18:16.813Z,33.75
2019-05-30T04:19:17.115Z,33.75
2019-05-30T04:20:21.001Z,33.75
2019-05-30T04:21:21.252Z,39.38
2019-05-30T04:22:20.773Z,33.75
2019-05-30T04:23:22.528Z,33.75
2019-05-30T04:24:22.216Z,33.75
2019-05-30T04:25:21.962Z,33.75
2019-05-30T04:26:23.479Z,39.38
2019-05-30T04:27:24.024Z,39.38
2019-05-30T04:28:23.982Z,39.38
2019-05-30T04:29:26.701Z,45
2019-05-30T04:30:27.373Z,45
2019-05-30T04:31:27.747Z,45
2019-05-30T04:32:27.136Z,45
2019-05-30T04:33:44.674Z,45
2019-05-30T04:34:30.323Z,50.63
2019-05-30T04:35:29.336Z,56.25
2019-05-30T04:36:29.918Z,56.25
2019-05-30T04:37:29.533Z,50.63
2019-05-30T04:38:30.484Z,56.25
2019-05-30T04:39:30.449Z,56.25
2019-05-30T04:40:31.573Z,61.88
2019-05-30T04:41:31.937Z,56.25
2019-05-30T04:42:31.558Z,56.25
2019-05-30T04:43:32.062Z,56.25
2019-05-30T04:44:32.417Z,61.88
2019-05-30T04:45:38.215Z,61.88
2019-05-30T04:46:35.299Z,61.88
2019-05-30T04:47:32.268Z,61.88
2019-05-30T04:48:35.467Z,61.88
2019-05-30T04:49:35.544Z,61.88
2019-05-30T04:50:36.318Z,56.25
2019-05-30T04:51:38.338Z,56.25
2019-05-30T04:52:40.984Z,56.25
2019-05-30T04:53:37.505Z,56.25
2019-05-30T04:54:37.926Z,56.25
2019-05-30T04:55:39.340Z,56.25
2019-05-30T04:56:38.187Z,56.25
2019-05-30T04:57:42.981Z,56.25
2019-05-30T04:58:42.449Z,56.25
2019-05-30T04:59:40.030Z,61.88
2019-05-30T05:00:40.783Z,56.25
2019-05-30T05:01:42.052Z,61.88
2019-05-30T05:02:42.047Z,61.88
2019-05-30T05:04:01.853Z,61.88
2019-05-30T05:04:43.542Z,61.88
2019-05-30T05:05:44.151Z,61.88
2019-05-30T05:06:43.856Z,61.88
2019-05-30T05:07:44.893Z,61.88
2019-05-30T05:08:45.207Z,61.88
2019-05-30T05:09:44.938Z,61.88
2019-05-30T05:10:45.357Z,61.88
2019-05-30T05:11:45.779Z,61.88
2019-05-30T05:12:46.504Z,61.88
2019-05-30T05:13:47.200Z,73.13
2019-05-30T05:14:47.630Z,67.5
2019-05-30T05:15:48.377Z,67.5
2019-05-30T05:16:52.704Z,61.88
2019-05-30T05:17:49.977Z,67.5
2019-05-30T05:18:51.012Z,61.88
2019-05-30T05:19:51.735Z,61.88
2019-05-30T05:20:52.973Z,67.5
2019-05-30T05:21:52.987Z,67.5
2019-05-30T05:22:53.395Z,73.13
2019-05-30T05:23:53.806Z,73.13
2019-05-30T05:24:54.210Z,84.38
2019-05-30T05:26:13.391Z,90
2019-05-30T05:26:54.886Z,90
2019-05-30T05:27:55.010Z,95.63
2019-05-30T05:28:55.690Z,101.25
2019-05-30T05:29:55.813Z,106.88
2019-05-30T05:30:56.233Z,106.88
2019-05-30T05:31:56.347Z,106.88
2019-05-30T05:32:57.060Z,123.75
2019-05-30T05:34:12.515Z,135
2019-05-30T05:34:58.213Z,140.63
2019-05-30T05:35:59.461Z,140.63
2019-05-30T05:36:59.860Z,146.25
2019-05-30T05:37:59.986Z,146.25
2019-05-30T05:39:00.109Z,146.25
2019-05-30T05:40:00.226Z,146.25
2019-05-30T05:41:00.642Z,146.25
2019-05-30T05:42:00.759Z,151.88
2019-05-30T05:43:01.179Z,151.88
2019-05-30T05:44:01.596Z,157.5
2019-05-30T05:45:01.994Z,157.5
2019-05-30T05:46:02.514Z,146.25
2019-05-30T05:47:03.210Z,146.25
2019-05-30T05:48:03.924Z,157.5
2019-05-30T05:49:04.354Z,151.88
2019-05-30T05:50:05.522Z,157.5
2019-05-30T05:51:05.505Z,157.5
2019-05-30T05:52:06.218Z,157.5
2019-05-30T05:53:06.618Z,168.75
2019-05-30T05:54:07.052Z,174.38
2019-05-30T05:55:07.200Z,180
2019-05-30T05:56:08.136Z,185.63
2019-05-30T05:57:08.920Z,191.25
2019-05-30T05:58:09.908Z,191.25
2019-05-30T05:59:10.346Z,191.25
2019-05-30T06:00:11.120Z,185.63
2019-05-30T06:01:12.129Z,180
2019-05-30T06:02:12.851Z,180
2019-05-30T06:03:13.932Z,174.38
2019-05-30T06:04:30.476Z,157.5
2019-05-30T06:05:15.927Z,146.25
2019-05-30T06:06:15.534Z,129.38
2019-05-30T06:07:16.134Z,129.38
2019-05-30T06:08:17.423Z,135
2019-05-30T06:09:18.317Z,157.5
2019-05-30T06:10:19.512Z,174.38
2019-05-30T06:11:19.032Z,168.75
2019-05-30T06:12:19.692Z,163.13
2019-05-30T06:13:22.873Z,151.88
2019-05-30T06:14:21.762Z,146.25
2019-05-30T06:15:22.900Z,151.88
2019-05-30T06:16:24.082Z,157.5
2019-05-30T06:17:25.084Z,168.75
2019-05-30T06:18:24.173Z,185.63
2019-05-30T06:19:25.324Z,202.5
2019-05-30T06:20:25.336Z,208.13
2019-05-30T06:21:25.447Z,196.88
2019-05-30T06:22:25.587Z,180
2019-05-30T06:23:27.770Z,180
2019-05-30T06:24:28.934Z,180
2019-05-30T06:25:37.964Z,174.38
2019-05-30T06:26:29.862Z,168.75
2019-05-30T06:27:29.225Z,163.13
2019-05-30T06:28:29.428Z,168.75
2019-05-30T06:29:31.765Z,157.5
2019-05-30T06:30:31.642Z,151.88
2019-05-30T06:31:31.816Z,151.88
2019-05-30T06:32:34.419Z,151.88
2019-05-30T06:33:32.410Z,157.5
2019-05-30T06:34:51.080Z,163.13
2019-05-30T06:35:35.921Z,157.5
2019-05-30T06:36:35.694Z,163.13
2019-05-30T06:37:36.465Z,163.13
2019-05-30T06:38:38.269Z,168.75
2019-05-30T06:39:38.287Z,180
2019-05-30T06:40:42.965Z,191.25
2019-05-30T06:41:38.648Z,208.13
2019-05-30T06:42:41.253Z,208.13
2019-05-30T06:43:41.550Z,202.5
2019-05-30T06:44:40.862Z,196.88
2019-05-30T06:45:41.338Z,191.25
2019-05-30T06:46:42.118Z,196.88
2019-05-30T06:47:41.410Z,202.5
2019-05-30T06:48:43.859Z,208.13
2019-05-30T06:49:42.971Z,208.13
2019-05-30T06:50:43.001Z,202.5
2019-05-30T06:51:43.145Z,208.13
2019-05-30T06:52:43.851Z,191.25
2019-05-30T06:53:46.106Z,202.5
2019-05-30T06:54:45.455Z,202.5
2019-05-30T06:55:46.153Z,202.5
2019-05-30T06:56:49.958Z,208.13
2019-05-30T06:57:47.553Z,213.75
2019-05-30T06:59:04.259Z,208.13
2019-05-30T06:59:47.975Z,208.13
2019-05-30T07:00:48.810Z,208.13
2019-05-30T07:01:51.735Z,225
2019-05-30T07:02:50.464Z,247.5
2019-05-30T07:03:51.114Z,236.25
2019-05-30T07:05:10.914Z,236.25
2019-05-30T07:05:54.992Z,241.88
2019-05-30T07:06:54.318Z,241.88
2019-05-30T07:07:54.477Z,247.5
2019-05-30T07:08:53.203Z,241.88
2019-05-30T07:09:53.323Z,258.75
2019-05-30T07:10:53.449Z,275.63
2019-05-30T07:11:53.878Z,286.88
2019-05-30T07:12:54.593Z,303.75
2019-05-30T07:13:55.288Z,309.38
2019-05-30T07:14:55.416Z,292.5
2019-05-30T07:15:55.831Z,303.75
2019-05-30T07:16:56.519Z,247.5
2019-05-30T07:17:57.243Z,275.63
2019-05-30T07:18:58.519Z,343.13
2019-05-30T07:19:58.930Z,421.88
2019-05-30T07:20:59.057Z,433.13
2019-05-30T07:21:59.469Z,388.13
2019-05-30T07:22:59.942Z,495
2019-05-30T07:24:00.084Z,596.25
2019-05-30T07:25:00.221Z,1355.63
2019-05-30T07:26:03.320Z,1327.5
2019-05-30T07:27:01.032Z,360
2019-05-30T07:28:01.488Z,281.25
2019-05-30T07:29:06.104Z,247.5
2019-05-30T07:30:02.805Z,298.13
2019-05-30T07:31:02.944Z,230.63
2019-05-30T07:32:04.234Z,202.5
2019-05-30T07:33:03.926Z,180
2019-05-30T07:34:04.626Z,213.75
2019-05-30T07:35:19.211Z,573.75
2019-05-30T07:36:05.616Z,843.75
2019-05-30T07:37:06.420Z,1254.38
2019-05-30T07:38:06.631Z,1254.38
2019-05-30T07:39:07.049Z,354.38
2019-05-30T07:40:07.180Z,444.38
2019-05-30T07:41:07.603Z,393.75
2019-05-30T07:42:21.880Z,196.88
2019-05-30T07:43:08.605Z,315
2019-05-30T07:44:09.008Z,618.75
2019-05-30T07:45:09.137Z,1198.13
2019-05-30T07:46:14.978Z,1344.38
2019-05-30T07:47:09.942Z,1524.38
2019-05-30T07:48:11.098Z,1760.63
2019-05-30T07:49:11.827Z,1788.75
2019-05-30T07:50:12.884Z,1783.13
2019-05-30T07:51:13.262Z,1220.63
2019-05-30T07:52:14.215Z,1305
2019-05-30T07:53:13.836Z,1243.13
2019-05-30T07:54:14.538Z,1608.75
2019-05-30T07:55:15.263Z,1372.5
2019-05-30T07:56:16.003Z,2036.25
2019-05-30T07:57:16.833Z,1091.25
2019-05-30T07:58:17.260Z,1951.88
2019-05-30T07:59:17.822Z,1873.13
2019-05-30T08:00:17.960Z,1890
2019-05-30T08:01:18.262Z,2008.13
2019-05-30T08:02:19.041Z,2115
2019-05-30T08:03:19.263Z,2109.38
2019-05-30T08:04:19.901Z,2002.5
2019-05-30T08:05:35.845Z,1946.25
2019-05-30T08:06:21.331Z,1946.25
2019-05-30T08:07:21.574Z,1940.63
2019-05-30T08:08:22.162Z,1991.25
2019-05-30T08:09:22.885Z,1991.25
2019-05-30T08:10:23.330Z,1957.5
2019-05-30T08:11:26.740Z,1912.5
2019-05-30T08:12:24.343Z,1760.63
2019-05-30T08:13:24.772Z,1665
2019-05-30T08:14:25.219Z,1625.63
2019-05-30T08:15:25.660Z,1608.75
2019-05-30T08:16:27.059Z,1816.88
2019-05-30T08:17:27.092Z,1935
2019-05-30T08:18:27.650Z,2154.38
2019-05-30T08:19:27.796Z,2176.88
2019-05-30T08:20:28.150Z,1777.5
2019-05-30T08:21:28.361Z,1451.25
2019-05-30T08:22:29.843Z,1552.5
2019-05-30T08:23:30.053Z,1642.5
2019-05-30T08:24:30.125Z,1625.63
2019-05-30T08:25:30.049Z,1681.88
2019-05-30T08:26:36.366Z,1861.88
2019-05-30T08:27:32.348Z,1940.63
2019-05-30T08:28:32.874Z,2036.25
2019-05-30T08:29:34.347Z,2064.38
2019-05-30T08:30:34.550Z,2064.38
2019-05-30T08:31:34.570Z,2019.38
2019-05-30T08:32:36.839Z,2041.88
2019-05-30T08:33:39.712Z,2103.75
2019-05-30T08:34:36.649Z,1614.38
2019-05-30T08:36:00.433Z,2188.13
2019-05-30T08:36:37.120Z,2210.63
2019-05-30T08:37:39.349Z,1563.75
2019-05-30T08:38:39.352Z,1057.5
2019-05-30T08:39:39.284Z,1912.5
2019-05-30T08:40:40.904Z,781.88
2019-05-30T08:41:40.532Z,630
2019-05-30T08:42:43.952Z,2030.63
2019-05-30T08:43:40.811Z,1878.75
2019-05-30T08:44:43.232Z,1828.13
2019-05-30T08:45:43.519Z,1974.38
2019-05-30T08:46:45.242Z,1878.75
2019-05-30T08:47:45.980Z,1805.63
2019-05-30T08:48:45.940Z,1811.25
2019-05-30T08:49:45.641Z,1800
2019-05-30T08:50:53.473Z,1726.88
2019-05-30T08:51:47.174Z,1676.25
2019-05-30T08:52:49.029Z,1766.25
2019-05-30T08:53:49.383Z,1794.38
2019-05-30T08:54:51.191Z,1805.63
2019-05-30T08:55:51.549Z,1788.75
2019-05-30T08:56:51.616Z,1665
2019-05-30T08:57:52.064Z,1710
2019-05-30T08:58:52.592Z,1563.75
2019-05-30T08:59:55.506Z,1209.38
2019-05-30T09:00:53.511Z,725.63
2019-05-30T09:01:58.645Z,686.25
2019-05-30T09:02:53.884Z,1119.38
2019-05-30T09:03:57.015Z,1400.63
2019-05-30T09:04:56.654Z,1552.5
2019-05-30T09:06:15.974Z,433.13
2019-05-30T09:06:57.036Z,348.75
2019-05-30T09:07:57.560Z,309.38
2019-05-30T09:08:58.213Z,270
2019-05-30T09:09:58.111Z,286.88
2019-05-30T09:10:58.798Z,427.5
2019-05-30T09:11:58.229Z,427.5
2019-05-30T09:13:02.555Z,320.63
2019-05-30T09:13:58.946Z,399.38
2019-05-30T09:15:01.666Z,202.5
2019-05-30T09:16:01.102Z,146.25
2019-05-30T09:17:06.019Z,135
2019-05-30T09:18:03.548Z,129.38
2019-05-30T09:19:03.800Z,129.38
2019-05-30T09:20:03.823Z,123.75
2019-05-30T09:21:03.549Z,123.75
2019-05-30T09:22:03.637Z,112.5
2019-05-30T09:23:04.359Z,106.88
2019-05-30T09:24:12.506Z,112.5
2019-05-30T09:25:05.294Z,106.88
2019-05-30T09:26:05.749Z,101.25
2019-05-30T09:27:06.627Z,95.63
2019-05-30T09:28:07.147Z,90
2019-05-30T09:29:09.120Z,90
2019-05-30T09:30:08.255Z,84.38
2019-05-30T09:31:08.380Z,84.38
2019-05-30T09:32:08.514Z,78.75
2019-05-30T09:33:08.921Z,73.13
2019-05-30T09:34:12.047Z,73.13
2019-05-30T09:35:09.921Z,73.13
2019-05-30T09:36:24.765Z,78.75
2019-05-30T09:37:11.484Z,78.75
2019-05-30T09:38:11.627Z,78.75
2019-05-30T09:39:11.788Z,73.13
2019-05-30T09:40:12.783Z,73.13
2019-05-30T09:41:12.906Z,73.13
2019-05-30T09:42:13.916Z,73.13
2019-05-30T09:43:14.618Z,67.5
2019-05-30T09:44:14.798Z,67.5
2019-05-30T09:45:15.199Z,67.5
2019-05-30T09:46:15.353Z,67.5
2019-05-30T09:47:15.874Z,67.5
2019-05-30T09:48:16.102Z,67.5
2019-05-30T09:49:16.259Z,67.5
2019-05-30T09:50:20.706Z,67.5
2019-05-30T09:51:17.407Z,67.5
2019-05-30T09:52:17.856Z,67.5
2019-05-30T09:53:18.325Z,73.13
2019-05-30T09:54:18.733Z,73.13
2019-05-30T09:55:18.952Z,73.13
2019-05-30T09:56:19.361Z,73.13
2019-05-30T09:57:20.341Z,73.13
2019-05-30T09:58:20.134Z,73.13
2019-05-30T09:59:20.853Z,73.13
2019-05-30T10:00:21.571Z,73.13
2019-05-30T10:01:22.279Z,73.13
2019-05-30T10:02:22.702Z,73.13
2019-05-30T10:03:23.298Z,73.13
2019-05-30T10:04:24.313Z,73.13
2019-05-30T10:05:25.072Z,73.13
2019-05-30T10:06:40.880Z,73.13
2019-05-30T10:07:26.277Z,73.13
2019-05-30T10:08:26.941Z,73.13
2019-05-30T10:09:28.062Z,78.75
2019-05-30T10:10:27.783Z,78.75
2019-05-30T10:11:32.447Z,78.75
2019-05-30T10:12:28.567Z,78.75
2019-05-30T10:13:28.994Z,73.13
2019-05-30T10:14:29.691Z,73.13
2019-05-30T10:15:30.314Z,73.13
2019-05-30T10:16:30.715Z,78.75
2019-05-30T10:17:31.715Z,78.75
2019-05-30T10:18:32.276Z,78.75
2019-05-30T10:19:32.986Z,78.75
2019-05-30T10:20:33.695Z,78.75
2019-05-30T10:21:33.819Z,78.75
2019-05-30T10:22:34.513Z,78.75
2019-05-30T10:23:34.917Z,78.75
2019-05-30T10:24:35.342Z,78.75
2019-05-30T10:25:36.337Z,78.75
2019-05-30T10:26:36.749Z,78.75
2019-05-30T10:27:37.156Z,78.75
2019-05-30T10:28:39.074Z,78.75
2019-05-30T10:29:38.510Z,84.38
2019-05-30T10:30:39.245Z,84.38
2019-05-30T10:31:39.682Z,84.38
2019-05-30T10:32:40.725Z,90
2019-05-30T10:33:41.485Z,90
2019-05-30T10:34:42.468Z,90
2019-05-30T10:35:47.330Z,90
2019-05-30T10:36:57.297Z,90
2019-05-30T10:37:45.408Z,90
2019-05-30T10:38:46.835Z,90
2019-05-30T10:39:47.386Z,90
2019-05-30T10:40:48.722Z,90
2019-05-30T10:41:47.610Z,90
2019-05-30T10:42:49.529Z,90
2019-05-30T10:43:51.141Z,95.63
2019-05-30T10:44:54.473Z,95.63
2019-05-30T10:45:51.205Z,95.63
2019-05-30T10:46:54.576Z,95.63
2019-05-30T10:47:53.629Z,95.63
2019-05-30T10:48:54.652Z,101.25
2019-05-30T10:49:54.607Z,101.25
2019-05-30T10:50:54.405Z,106.88
2019-05-30T10:51:57.833Z,106.88
2019-05-30T10:52:56.681Z,106.88
2019-05-30T10:54:00.917Z,106.88
2019-05-30T10:55:00.855Z,112.5
2019-05-30T10:55:59.961Z,112.5
2019-05-30T10:57:00.884Z,118.13
2019-05-30T10:58:04.284Z,123.75
2019-05-30T10:59:00.549Z,123.75
2019-05-30T11:00:03.207Z,129.38
2019-05-30T11:01:06.493Z,135
2019-05-30T11:02:05.150Z,140.63
2019-05-30T11:03:03.843Z,140.63
2019-05-30T11:04:05.740Z,146.25
2019-05-30T11:05:06.095Z,151.88
2019-05-30T11:06:05.734Z,157.5
2019-05-30T11:07:23.390Z,168.75
2019-05-30T11:08:17.461Z,174.38
2019-05-30T11:09:08.112Z,174.38
2019-05-30T11:10:09.153Z,180
2019-05-30T11:11:08.852Z,185.63
2019-05-30T11:12:08.749Z,185.63
2019-05-30T11:13:18.396Z,191.25
2019-05-30T11:14:09.148Z,196.88
2019-05-30T11:15:09.907Z,196.88
2019-05-30T11:16:11.978Z,202.5
2019-05-30T11:17:11.989Z,202.5
2019-05-30T11:18:14.381Z,202.5
2019-05-30T11:19:19.161Z,196.88
2019-05-30T11:20:14.091Z,196.88
2019-05-30T11:21:14.514Z,196.88
2019-05-30T11:22:14.588Z,196.88
2019-05-30T11:23:15.013Z,202.5
2019-05-30T11:24:15.138Z,202.5
2019-05-30T11:25:16.076Z,202.5
2019-05-30T11:26:16.200Z,202.5
2019-05-30T11:27:16.609Z,202.5
2019-05-30T11:28:17.225Z,208.13
2019-05-30T11:29:17.556Z,202.5
2019-05-30T11:30:18.272Z,196.88
2019-05-30T11:31:21.648Z,191.25
2019-05-30T11:32:19.784Z,185.63
2019-05-30T11:33:20.198Z,185.63
2019-05-30T11:34:20.656Z,185.63
2019-05-30T11:35:21.687Z,191.25
2019-05-30T11:36:22.165Z,191.25
2019-05-30T11:37:35.217Z,191.25
2019-05-30T11:38:23.343Z,191.25
2019-05-30T11:39:24.253Z,191.25
2019-05-30T11:40:25.279Z,185.63
2019-05-30T11:41:26.011Z,191.25
2019-05-30T11:42:26.513Z,191.25
2019-05-30T11:43:27.592Z,196.88
2019-05-30T11:44:28.029Z,202.5
2019-05-30T11:45:28.762Z,208.13
2019-05-30T11:46:29.257Z,208.13
2019-05-30T11:47:30.141Z,213.75
2019-05-30T11:48:31.030Z,213.75
2019-05-30T11:49:30.531Z,219.38
2019-05-30T11:50:30.983Z,219.38
2019-05-30T11:51:31.755Z,225
2019-05-30T11:52:32.545Z,230.63
2019-05-30T11:53:32.966Z,236.25
2019-05-30T11:54:33.410Z,241.88
2019-05-30T11:55:33.708Z,247.5
2019-05-30T11:56:34.705Z,253.13
2019-05-30T11:57:35.181Z,258.75
2019-05-30T11:58:36.298Z,264.38
2019-05-30T11:59:36.018Z,270
2019-05-30T12:00:37.102Z,270
2019-05-30T12:01:37.535Z,275.63
2019-05-30T12:02:38.537Z,281.25
2019-05-30T12:03:40.624Z,286.88
2019-05-30T12:04:40.465Z,298.13
2019-05-30T12:05:40.598Z,315
2019-05-30T12:06:41.327Z,326.25
2019-05-30T12:07:52.780Z,343.13
2019-05-30T12:08:42.416Z,348.75
2019-05-30T12:09:43.307Z,354.38
2019-05-30T12:10:44.032Z,360
2019-05-30T12:11:44.163Z,365.63
2019-05-30T12:12:44.773Z,371.25
2019-05-30T12:13:45.241Z,376.88
2019-05-30T12:14:45.384Z,388.13
2019-05-30T12:15:46.118Z,399.38
2019-05-30T12:16:48.167Z,410.63
2019-05-30T12:17:47.618Z,410.63
2019-05-30T12:18:48.056Z,472.5
2019-05-30T12:19:49.354Z,438.75
2019-05-30T12:20:51.587Z,444.38
2019-05-30T12:21:51.493Z,433.13
2019-05-30T12:22:51.723Z,444.38
2019-05-30T12:23:51.892Z,472.5
2019-05-30T12:24:53.844Z,455.63
2019-05-30T12:25:53.969Z,427.5
2019-05-30T12:26:53.859Z,421.88
2019-05-30T12:27:53.947Z,421.88
2019-05-30T12:28:54.076Z,427.5
2019-05-30T12:29:54.157Z,433.13
2019-05-30T12:31:17.511Z,438.75
2019-05-30T12:31:57.327Z,438.75
2019-05-30T12:32:58.287Z,495
2019-05-30T12:33:58.370Z,511.88
2019-05-30T12:34:58.378Z,517.5
2019-05-30T12:36:00.620Z,680.63
2019-05-30T12:37:00.521Z,759.38
2019-05-30T12:38:17.356Z,641.25
2019-05-30T12:39:00.417Z,753.75
2019-05-30T12:40:03.181Z,590.63
2019-05-30T12:41:02.978Z,551.25
2019-05-30T12:42:03.326Z,545.63
2019-05-30T12:43:10.298Z,483.75
2019-05-30T12:44:04.717Z,753.75
2019-05-30T12:45:07.212Z,590.63
2019-05-30T12:46:06.722Z,613.13
2019-05-30T12:47:06.565Z,669.38
2019-05-30T12:48:06.538Z,585
2019-05-30T12:49:06.802Z,568.13
2019-05-30T12:50:08.781Z,630
2019-05-30T12:51:08.764Z,511.88
2019-05-30T12:52:09.577Z,810
2019-05-30T12:53:12.856Z,585
2019-05-30T12:54:12.080Z,658.13
2019-05-30T12:55:14.110Z,675
2019-05-30T12:56:14.152Z,691.88
2019-05-30T12:57:13.768Z,641.25
2019-05-30T12:58:14.521Z,646.88
2019-05-30T12:59:14.715Z,646.88
2019-05-30T13:00:29.809Z,596.25
2019-05-30T13:01:15.551Z,568.13
2019-05-30T13:02:18.255Z,545.63
2019-05-30T13:03:18.150Z,523.13
2019-05-30T13:04:19.359Z,511.88
2019-05-30T13:05:19.700Z,517.5
2019-05-30T13:06:19.779Z,517.5
2019-05-30T13:07:20.828Z,517.5
2019-05-30T13:08:36.779Z,517.5
2019-05-30T13:09:23.135Z,506.25
2019-05-30T13:10:24.023Z,523.13
2019-05-30T13:11:22.744Z,540
2019-05-30T13:12:23.158Z,540
2019-05-30T13:13:23.574Z,534.38
2019-05-30T13:14:24.025Z,528.75
2019-05-30T13:15:25.055Z,556.88
2019-05-30T13:16:25.854Z,585
2019-05-30T13:17:24.983Z,545.63
2019-05-30T13:18:25.727Z,483.75
2019-05-30T13:19:26.465Z,478.13
2019-05-30T13:20:27.931Z,478.13
2019-05-30T13:21:27.688Z,466.88